MET'MAP v2.0
soon released !

Expected late october,
this new version will be
more efficient, smarter,
and hosted on a brand new
server x3 powerfull...
...and still free !


Not compatible ?
Try the mobile version !

LOG IN : | Subscribe | Disclaimer | Who is Orbifly ? |
ICAO code :
Legend : VFR Marginal VFR IFR Intensive IFR Very Intensive IFR
Visi :
Ceiling :
>= 8 km
>= 3000ft
5 to 8 km
1000 to 3000 ft
1500m to 5 km
500 to 1000 ft
800 to 1500m
200 to 500 ft
< 800m
< 200 ft

METAR - DAOR Béchar Boudghene Ben Ali Lotfi Airport - 27 May 2020 06:02 UTC - Data Source NOAA   


- Airport Elevation : 2661 ft
- IATA code : CBH
- No reported NOTAMs.


DAOR - Béchar Boudghene Ben Ali Lotfi Airport

Latest METAR recorded : 2015/08/11 08:00 DAOR 110800Z 35004KT 7000 FEW033 BKN100 32/18 Q1020
TAF TAF DAOR
Valid from the 27 at 03:00 until the 27 at 12:00 UTC


270200Z 2703/2712 10008KT 6000 NSC
PROB40
TEMPO 2703/2708 4000 DU

Source NOAA


MET'MAP, your aeronautical weather chart ! - Copyright ORBIFLY December 2007

Programming & Development : Alexandra Zaïnal
Co-Developer : Marc-Olivier Méhu
Technical & hardware support : Manuel Goepfert
Concept & Financing : Baudouin d'Aumeries